sensor_id;sensor_type;location;lat;lon;timestamp;pressure;altitude;pressure_sealevel;temperature;humidity
35553;BME280;21656;46.054;13.614;2023-04-07T06:36:51;100722.66;;;5.49;97.49
35553;BME280;21656;46.054;13.614;2023-04-07T06:39:16;100724.78;;;5.27;98.45
35553;BME280;21656;46.054;13.614;2023-04-07T06:41:41;100723.16;;;5.40;100.00
35553;BME280;21656;46.054;13.614;2023-04-07T06:44:08;100718.44;;;5.45;96.50
35553;BME280;21656;46.054;13.614;2023-04-07T06:46:33;100712.97;;;5.80;94.98
35553;BME280;21656;46.054;13.614;2023-04-07T06:48:58;100711.09;;;5.98;92.55
35553;BME280;21656;46.054;13.614;2023-04-07T06:51:24;100712.88;;;5.97;90.26
35553;BME280;21656;46.054;13.614;2023-04-07T06:53:50;100711.47;;;6.22;91.11
35553;BME280;21656;46.054;13.614;2023-04-07T06:56:16;100714.63;;;6.44;86.71
35553;BME280;21656;46.054;13.614;2023-04-07T06:58:41;100713.34;;;6.66;83.81
35553;BME280;21656;46.054;13.614;2023-04-07T07:01:06;100701.25;;;6.75;82.94
35553;BME280;21656;46.054;13.614;2023-04-07T07:03:32;100709.44;;;7.02;80.74
35553;BME280;21656;46.054;13.614;2023-04-07T07:05:57;100706.38;;;7.22;77.98
35553;BME280;21656;46.054;13.614;2023-04-07T07:08:23;100705.41;;;7.52;77.50
35553;BME280;21656;46.054;13.614;2023-04-07T07:10:49;100700.59;;;7.57;74.42
35553;BME280;21656;46.054;13.614;2023-04-07T07:13:14;100697.84;;;7.44;73.01
35553;BME280;21656;46.054;13.614;2023-04-07T07:15:40;100703.78;;;7.49;73.35
35553;BME280;21656;46.054;13.614;2023-04-07T07:18:05;100694.38;;;7.56;71.77
35553;BME280;21656;46.054;13.614;2023-04-07T07:20:30;100698.88;;;7.56;72.41
35553;BME280;21656;46.054;13.614;2023-04-07T07:22:55;100694.19;;;7.59;73.51
35553;BME280;21656;46.054;13.614;2023-04-07T07:25:21;100695.81;;;7.62;71.65
35553;BME280;21656;46.054;13.614;2023-04-07T07:27:46;100694.41;;;7.98;72.27
35553;BME280;21656;46.054;13.614;2023-04-07T07:30:11;100690.84;;;7.97;68.68
35553;BME280;21656;46.054;13.614;2023-04-07T07:32:37;100686.97;;;8.16;68.97
35553;BME280;21656;46.054;13.614;2023-04-07T07:35:02;100685.06;;;8.18;68.03
35553;BME280;21656;46.054;13.614;2023-04-07T07:37:27;100690.00;;;7.97;66.52
35553;BME280;21656;46.054;13.614;2023-04-07T07:42:52;100685.91;;;8.18;66.24
35553;BME280;21656;46.054;13.614;2023-04-07T07:45:17;100687.88;;;8.29;66.74
35553;BME280;21656;46.054;13.614;2023-04-07T07:47:43;100679.41;;;8.35;65.49
35553;BME280;21656;46.054;13.614;2023-04-07T07:50:09;100680.25;;;8.63;65.53
35553;BME280;21656;46.054;13.614;2023-04-07T07:52:34;100675.97;;;8.86;64.69
35553;BME280;21656;46.054;13.614;2023-04-07T07:55:00;100684.47;;;9.05;61.09
35553;BME280;21656;46.054;13.614;2023-04-07T07:57:25;100674.28;;;9.10;59.64
35553;BME280;21656;46.054;13.614;2023-04-07T07:59:50;100665.97;;;9.26;60.04
35553;BME280;21656;46.054;13.614;2023-04-07T08:02:16;100661.88;;;9.46;59.99
35553;BME280;21656;46.054;13.614;2023-04-07T08:04:41;100661.09;;;9.57;58.20
35553;BME280;21656;46.054;13.614;2023-04-07T08:07:07;100656.97;;;9.64;59.10
35553;BME280;21656;46.054;13.614;2023-04-07T08:09:32;100655.97;;;9.78;57.15
35553;BME280;21656;46.054;13.614;2023-04-07T08:11:57;100654.94;;;9.92;54.81
35553;BME280;21656;46.054;13.614;2023-04-07T08:14:23;100649.81;;;10.13;55.62
35553;BME280;21656;46.054;13.614;2023-04-07T08:16:48;100648.47;;;10.31;53.12
35553;BME280;21656;46.054;13.614;2023-04-07T08:19:13;100645.53;;;10.34;53.06
35553;BME280;21656;46.054;13.614;2023-04-07T08:21:39;100645.00;;;10.53;52.69
35553;BME280;21656;46.054;13.614;2023-04-07T08:24:05;100642.91;;;10.68;53.24
35553;BME280;21656;46.054;13.614;2023-04-07T08:26:30;100641.41;;;10.99;53.78
35553;BME280;21656;46.054;13.614;2023-04-07T08:28:56;100634.53;;;11.29;52.79
35553;BME280;21656;46.054;13.614;2023-04-07T08:31:22;100635.13;;;11.44;51.28
35553;BME280;21656;46.054;13.614;2023-04-07T08:33:48;100623.25;;;11.58;50.62
35553;BME280;21656;46.054;13.614;2023-04-07T08:36:18;100625.31;;;11.54;50.10
35553;BME280;21656;46.054;13.614;2023-04-07T08:38:43;100620.03;;;11.64;50.69
35553;BME280;21656;46.054;13.614;2023-04-07T08:41:12;100614.22;;;11.80;50.15
35553;BME280;21656;46.054;13.614;2023-04-07T08:43:38;100615.22;;;11.90;50.07
35553;BME280;21656;46.054;13.614;2023-04-07T08:46:04;100608.84;;;11.91;50.23
35553;BME280;21656;46.054;13.614;2023-04-07T08:48:31;100603.84;;;12.19;51.37
35553;BME280;21656;46.054;13.614;2023-04-07T08:51:05;100600.56;;;12.36;50.33
35553;BME280;21656;46.054;13.614;2023-04-07T08:53:37;100600.22;;;12.50;50.22
35553;BME280;21656;46.054;13.614;2023-04-07T08:56:05;100591.88;;;12.53;49.48
35553;BME280;21656;46.054;13.614;2023-04-07T08:58:31;100588.63;;;12.60;49.66
35553;BME280;21656;46.054;13.614;2023-04-07T09:00:57;100593.25;;;12.48;49.27
35553;BME280;21656;46.054;13.614;2023-04-07T09:03:22;100591.53;;;12.68;49.66
35553;BME280;21656;46.054;13.614;2023-04-07T09:05:48;100582.72;;;12.96;49.02
35553;BME280;21656;46.054;13.614;2023-04-07T09:08:15;100579.94;;;13.08;48.74
35553;BME280;21656;46.054;13.614;2023-04-07T09:10:40;100581.59;;;12.99;49.06
35553;BME280;21656;46.054;13.614;2023-04-07T09:13:05;100579.63;;;13.41;49.36
35553;BME280;21656;46.054;13.614;2023-04-07T09:15:31;100575.00;;;13.63;48.48
35553;BME280;21656;46.054;13.614;2023-04-07T09:17:57;100574.16;;;13.72;47.22
35553;BME280;21656;46.054;13.614;2023-04-07T09:20:22;100577.28;;;13.58;46.99
35553;BME280;21656;46.054;13.614;2023-04-07T09:22:47;100568.81;;;13.41;46.49
35553;BME280;21656;46.054;13.614;2023-04-07T09:25:19;100570.81;;;13.49;47.18
35553;BME280;21656;46.054;13.614;2023-04-07T09:27:59;100576.44;;;13.57;47.00
35553;BME280;21656;46.054;13.614;2023-04-07T09:30:26;100553.38;;;13.82;48.30
35553;BME280;21656;46.054;13.614;2023-04-07T09:32:52;100559.34;;;14.15;47.65
35553;BME280;21656;46.054;13.614;2023-04-07T09:35:17;100559.63;;;14.12;46.57
35553;BME280;21656;46.054;13.614;2023-04-07T09:37:43;100553.53;;;13.81;45.82
35553;BME280;21656;46.054;13.614;2023-04-07T09:40:09;100554.63;;;13.69;46.46
35553;BME280;21656;46.054;13.614;2023-04-07T09:42:34;100558.88;;;13.52;46.62
35553;BME280;21656;46.054;13.614;2023-04-07T09:45:08;100549.38;;;13.77;48.30
35553;BME280;21656;46.054;13.614;2023-04-07T09:47:34;100547.53;;;13.97;46.31
35553;BME280;21656;46.054;13.614;2023-04-07T09:49:59;100556.22;;;13.81;46.14
35553;BME280;21656;46.054;13.614;2023-04-07T09:55:21;100550.78;;;14.20;45.25
35553;BME280;21656;46.054;13.614;2023-04-07T09:57:50;100539.66;;;14.32;43.50
35553;BME280;21656;46.054;13.614;2023-04-07T10:00:15;100537.78;;;14.62;44.97
35553;BME280;21656;46.054;13.614;2023-04-07T10:02:41;100532.56;;;14.88;44.02
35553;BME280;21656;46.054;13.614;2023-04-07T10:05:07;100530.81;;;14.97;43.88
35553;BME280;21656;46.054;13.614;2023-04-07T10:07:32;100536.59;;;15.12;43.68
35553;BME280;21656;46.054;13.614;2023-04-07T10:09:58;100533.28;;;14.81;43.13
35553;BME280;21656;46.054;13.614;2023-04-07T10:12:24;100533.38;;;14.61;43.04
35553;BME280;21656;46.054;13.614;2023-04-07T10:14:51;100521.13;;;14.57;43.02
35553;BME280;21656;46.054;13.614;2023-04-07T10:17:16;100521.88;;;14.87;42.77
35553;BME280;21656;46.054;13.614;2023-04-07T10:19:44;100508.13;;;14.98;41.69
35553;BME280;21656;46.054;13.614;2023-04-07T10:22:11;100507.47;;;14.86;41.89
35553;BME280;21656;46.054;13.614;2023-04-07T10:27:11;100509.19;;;15.15;41.51
35553;BME280;21656;46.054;13.614;2023-04-07T10:29:39;100507.59;;;14.85;40.84
35553;BME280;21656;46.054;13.614;2023-04-07T10:32:05;100499.78;;;15.09;41.59
35553;BME280;21656;46.054;13.614;2023-04-07T10:34:54;100505.75;;;15.41;41.20
35553;BME280;21656;46.054;13.614;2023-04-07T10:37:21;100499.97;;;15.26;39.94
35553;BME280;21656;46.054;13.614;2023-04-07T10:39:50;100501.81;;;15.53;39.53
35553;BME280;21656;46.054;13.614;2023-04-07T10:45:00;100502.50;;;15.37;39.19
35553;BME280;21656;46.054;13.614;2023-04-07T10:47:26;100491.50;;;15.74;38.65
35553;BME280;21656;46.054;13.614;2023-04-07T10:52:35;100492.03;;;16.40;39.41
35553;BME280;21656;46.054;13.614;2023-04-07T10:58:11;100482.00;;;16.40;37.81
35553;BME280;21656;46.054;13.614;2023-04-07T11:00:31;100474.22;;;16.45;38.21
35553;BME280;21656;46.054;13.614;2023-04-07T11:02:56;100468.00;;;16.53;37.14
35553;BME280;21656;46.054;13.614;2023-04-07T11:05:22;100473.97;;;16.83;38.84
35553;BME280;21656;46.054;13.614;2023-04-07T11:07:48;100472.97;;;17.35;37.76
35553;BME280;21656;46.054;13.614;2023-04-07T11:10:14;100471.50;;;17.73;37.64
35553;BME280;21656;46.054;13.614;2023-04-07T11:12:41;100477.31;;;18.03;36.59
35553;BME280;21656;46.054;13.614;2023-04-07T11:15:19;100472.78;;;17.44;37.02
35553;BME280;21656;46.054;13.614;2023-04-07T11:17:46;100469.19;;;17.19;37.74
35553;BME280;21656;46.054;13.614;2023-04-07T11:20:11;100466.59;;;16.75;38.30
35553;BME280;21656;46.054;13.614;2023-04-07T11:22:36;100475.91;;;16.73;37.80
35553;BME280;21656;46.054;13.614;2023-04-07T11:25:02;100479.38;;;16.49;38.27
35553;BME280;21656;46.054;13.614;2023-04-07T11:27:28;100474.66;;;16.33;39.07
35553;BME280;21656;46.054;13.614;2023-04-07T11:29:53;100487.06;;;16.35;39.32
35553;BME280;21656;46.054;13.614;2023-04-07T11:32:21;100482.66;;;16.34;39.56
35553;BME280;21656;46.054;13.614;2023-04-07T11:34:49;100474.88;;;16.65;38.95
35553;BME280;21656;46.054;13.614;2023-04-07T11:37:18;100476.88;;;16.81;38.66
35553;BME280;21656;46.054;13.614;2023-04-07T11:39:43;100475.91;;;16.99;38.37
35553;BME280;21656;46.054;13.614;2023-04-07T11:42:11;100481.41;;;17.15;37.02
35553;BME280;21656;46.054;13.614;2023-04-07T11:44:44;100471.50;;;17.73;36.67
35553;BME280;21656;46.054;13.614;2023-04-07T11:47:09;100478.84;;;18.13;35.37
35553;BME280;21656;46.054;13.614;2023-04-07T11:49:34;100473.69;;;18.43;35.02
35553;BME280;21656;46.054;13.614;2023-04-07T11:52:08;100480.63;;;18.70;34.26
35553;BME280;21656;46.054;13.614;2023-04-07T11:57:05;100465.22;;;18.22;34.55
35553;BME280;21656;46.054;13.614;2023-04-07T11:59:30;100470.81;;;18.36;34.17
35553;BME280;21656;46.054;13.614;2023-04-07T12:01:59;100469.91;;;18.77;33.33
35553;BME280;21656;46.054;13.614;2023-04-07T12:04:25;100471.66;;;19.09;32.97
35553;BME280;21656;46.054;13.614;2023-04-07T12:06:50;100477.47;;;18.98;31.95
35553;BME280;21656;46.054;13.614;2023-04-07T12:09:33;100467.81;;;17.90;33.61
35553;BME280;21656;46.054;13.614;2023-04-07T12:12:02;100466.06;;;18.22;34.64
35553;BME280;21656;46.054;13.614;2023-04-07T12:14:29;100465.47;;;18.59;35.34
35553;BME280;21656;46.054;13.614;2023-04-07T12:16:55;100461.06;;;18.58;34.49
35553;BME280;21656;46.054;13.614;2023-04-07T12:19:22;100467.16;;;18.77;34.76
35553;BME280;21656;46.054;13.614;2023-04-07T12:21:47;100462.00;;;18.90;34.11
35553;BME280;21656;46.054;13.614;2023-04-07T12:24:13;100458.00;;;18.45;34.39
35553;BME280;21656;46.054;13.614;2023-04-07T12:26:38;100459.94;;;18.20;34.86
35553;BME280;21656;46.054;13.614;2023-04-07T12:29:03;100457.72;;;18.07;34.87
35553;BME280;21656;46.054;13.614;2023-04-07T12:31:30;100457.03;;;18.05;34.09
35553;BME280;21656;46.054;13.614;2023-04-07T12:33:56;100452.59;;;18.29;34.24
35553;BME280;21656;46.054;13.614;2023-04-07T12:36:21;100452.41;;;18.47;34.28
35553;BME280;21656;46.054;13.614;2023-04-07T12:38:47;100443.94;;;18.17;35.16
35553;BME280;21656;46.054;13.614;2023-04-07T12:41:12;100444.03;;;18.56;34.15
35553;BME280;21656;46.054;13.614;2023-04-07T12:43:37;100447.41;;;18.67;33.39
35553;BME280;21656;46.054;13.614;2023-04-07T12:46:02;100434.66;;;18.98;34.08
35553;BME280;21656;46.054;13.614;2023-04-07T12:48:28;100447.09;;;19.09;34.19
35553;BME280;21656;46.054;13.614;2023-04-07T12:50:53;100446.97;;;18.38;34.32
35553;BME280;21656;46.054;13.614;2023-04-07T12:53:18;100452.28;;;18.24;34.92
35553;BME280;21656;46.054;13.614;2023-04-07T12:55:44;100435.53;;;18.35;34.82
35553;BME280;21656;46.054;13.614;2023-04-07T12:58:11;100433.81;;;18.58;35.03
35553;BME280;21656;46.054;13.614;2023-04-07T13:00:37;100430.81;;;18.84;34.75
35553;BME280;21656;46.054;13.614;2023-04-07T13:03:02;100426.94;;;19.10;34.46
35553;BME280;21656;46.054;13.614;2023-04-07T13:05:28;100436.06;;;19.25;34.23
35553;BME280;21656;46.054;13.614;2023-04-07T13:07:53;100434.72;;;19.44;33.53
35553;BME280;21656;46.054;13.614;2023-04-07T13:10:18;100426.13;;;19.56;33.43
35553;BME280;21656;46.054;13.614;2023-04-07T13:12:45;100432.03;;;19.13;34.11
35553;BME280;21656;46.054;13.614;2023-04-07T13:15:11;100431.72;;;19.08;34.86
35553;BME280;21656;46.054;13.614;2023-04-07T13:17:36;100427.63;;;19.04;35.70
35553;BME280;21656;46.054;13.614;2023-04-07T13:20:03;100422.75;;;18.99;35.50
35553;BME280;21656;46.054;13.614;2023-04-07T13:22:28;100428.97;;;18.77;35.42
35553;BME280;21656;46.054;13.614;2023-04-07T13:24:54;100432.25;;;18.64;35.57
35553;BME280;21656;46.054;13.614;2023-04-07T13:27:19;100428.50;;;18.57;35.56
35553;BME280;21656;46.054;13.614;2023-04-07T13:29:45;100415.78;;;18.33;36.36
35553;BME280;21656;46.054;13.614;2023-04-07T13:32:10;100415.66;;;18.18;36.54
35553;BME280;21656;46.054;13.614;2023-04-07T13:34:40;100408.16;;;18.20;36.23
35553;BME280;21656;46.054;13.614;2023-04-07T13:37:05;100412.09;;;17.60;36.27
35553;BME280;21656;46.054;13.614;2023-04-07T13:39:31;100410.38;;;17.59;37.05
35553;BME280;21656;46.054;13.614;2023-04-07T13:41:57;100410.03;;;17.62;37.24
35553;BME280;21656;46.054;13.614;2023-04-07T13:44:23;100406.63;;;17.36;37.56
35553;BME280;21656;46.054;13.614;2023-04-07T13:46:48;100403.22;;;17.42;38.33
35553;BME280;21656;46.054;13.614;2023-04-07T13:49:14;100401.34;;;17.26;37.98
35553;BME280;21656;46.054;13.614;2023-04-07T13:51:39;100409.63;;;17.16;37.90
35553;BME280;21656;46.054;13.614;2023-04-07T13:54:05;100407.66;;;16.41;37.83
35553;BME280;21656;46.054;13.614;2023-04-07T13:56:30;100408.56;;;15.98;38.50
35553;BME280;21656;46.054;13.614;2023-04-07T13:58:56;100407.25;;;15.84;39.06
35553;BME280;21656;46.054;13.614;2023-04-07T14:01:21;100407.91;;;15.78;38.81
35553;BME280;21656;46.054;13.614;2023-04-07T14:03:47;100401.41;;;15.71;38.06
35553;BME280;21656;46.054;13.614;2023-04-07T14:06:13;100406.28;;;15.85;37.77
35553;BME280;21656;46.054;13.614;2023-04-07T14:08:38;100398.22;;;16.01;38.04
35553;BME280;21656;46.054;13.614;2023-04-07T14:11:04;100398.66;;;16.15;38.89
35553;BME280;21656;46.054;13.614;2023-04-07T14:13:29;100395.75;;;16.08;37.62
35553;BME280;21656;46.054;13.614;2023-04-07T14:15:54;100405.81;;;16.16;37.57
35553;BME280;21656;46.054;13.614;2023-04-07T14:18:20;100399.19;;;16.18;37.62
35553;BME280;21656;46.054;13.614;2023-04-07T14:20:45;100389.66;;;16.14;37.80
35553;BME280;21656;46.054;13.614;2023-04-07T14:23:10;100401.69;;;16.12;36.54
35553;BME280;21656;46.054;13.614;2023-04-07T14:25:36;100406.53;;;16.00;36.77
35553;BME280;21656;46.054;13.614;2023-04-07T14:28:01;100406.19;;;15.77;35.82
35553;BME280;21656;46.054;13.614;2023-04-07T14:30:27;100403.31;;;15.78;36.30
35553;BME280;21656;46.054;13.614;2023-04-07T14:32:52;100400.22;;;15.73;36.36
35553;BME280;21656;46.054;13.614;2023-04-07T14:35:17;100410.69;;;15.68;35.75
35553;BME280;21656;46.054;13.614;2023-04-07T14:37:42;100405.19;;;15.60;36.11
35553;BME280;21656;46.054;13.614;2023-04-07T14:40:08;100402.63;;;15.58;35.91
35553;BME280;21656;46.054;13.614;2023-04-07T14:42:33;100404.56;;;15.66;35.61
35553;BME280;21656;46.054;13.614;2023-04-07T14:44:59;100408.84;;;15.33;35.62
35553;BME280;21656;46.054;13.614;2023-04-07T14:47:25;100406.06;;;15.43;36.37
35553;BME280;21656;46.054;13.614;2023-04-07T14:49:51;100403.78;;;15.38;36.20
35553;BME280;21656;46.054;13.614;2023-04-07T14:52:16;100416.84;;;15.34;36.00
35553;BME280;21656;46.054;13.614;2023-04-07T14:54:41;100403.47;;;15.41;36.61
35553;BME280;21656;46.054;13.614;2023-04-07T14:57:07;100404.09;;;15.53;36.39
35553;BME280;21656;46.054;13.614;2023-04-07T14:59:32;100414.97;;;15.53;35.62
35553;BME280;21656;46.054;13.614;2023-04-07T15:01:58;100405.41;;;15.49;35.66
35553;BME280;21656;46.054;13.614;2023-04-07T15:04:23;100410.84;;;15.31;35.68
35553;BME280;21656;46.054;13.614;2023-04-07T15:06:49;100404.56;;;15.30;36.52
35553;BME280;21656;46.054;13.614;2023-04-07T15:09:14;100407.28;;;15.30;36.15
35553;BME280;21656;46.054;13.614;2023-04-07T15:11:39;100411.69;;;15.31;35.96
35553;BME280;21656;46.054;13.614;2023-04-07T15:14:05;100408.66;;;15.16;35.51
35553;BME280;21656;46.054;13.614;2023-04-07T15:16:31;100410.44;;;15.08;34.97
35553;BME280;21656;46.054;13.614;2023-04-07T15:18:56;100404.56;;;14.67;34.64
35553;BME280;21656;46.054;13.614;2023-04-07T15:21:22;100404.16;;;14.52;34.38
35553;BME280;21656;46.054;13.614;2023-04-07T15:23:47;100401.03;;;14.57;35.06
35553;BME280;21656;46.054;13.614;2023-04-07T15:26:12;100397.88;;;14.51;35.86
35553;BME280;21656;46.054;13.614;2023-04-07T15:28:37;100409.47;;;14.44;34.88
35553;BME280;21656;46.054;13.614;2023-04-07T15:31:03;100412.53;;;14.31;34.58
35553;BME280;21656;46.054;13.614;2023-04-07T15:33:32;100412.94;;;14.36;34.51
35553;BME280;21656;46.054;13.614;2023-04-07T15:35:57;100409.41;;;14.26;35.02
35553;BME280;21656;46.054;13.614;2023-04-07T15:38:25;100406.69;;;14.26;35.44
35553;BME280;21656;46.054;13.614;2023-04-07T15:40:51;100413.72;;;14.09;35.13
35553;BME280;21656;46.054;13.614;2023-04-07T15:43:17;100419.44;;;13.96;35.51
35553;BME280;21656;46.054;13.614;2023-04-07T15:45:42;100408.50;;;13.98;35.41
35553;BME280;21656;46.054;13.614;2023-04-07T15:48:08;100407.03;;;14.03;35.75
35553;BME280;21656;46.054;13.614;2023-04-07T15:50:34;100407.28;;;14.10;36.29
35553;BME280;21656;46.054;13.614;2023-04-07T15:53:00;100411.72;;;14.11;36.60
35553;BME280;21656;46.054;13.614;2023-04-07T15:55:25;100401.72;;;14.21;36.58
35553;BME280;21656;46.054;13.614;2023-04-07T15:57:50;100406.03;;;14.04;36.78
35553;BME280;21656;46.054;13.614;2023-04-07T16:00:17;100406.59;;;14.08;36.72
35553;BME280;21656;46.054;13.614;2023-04-07T16:02:42;100404.31;;;14.13;36.55
35553;BME280;21656;46.054;13.614;2023-04-07T16:05:07;100406.03;;;14.04;37.13
35553;BME280;21656;46.054;13.614;2023-04-07T16:07:33;100405.63;;;13.99;37.81
35553;BME280;21656;46.054;13.614;2023-04-07T16:09:58;100405.19;;;13.94;38.29
35553;BME280;21656;46.054;13.614;2023-04-07T16:12:23;100404.78;;;13.89;38.50
35553;BME280;21656;46.054;13.614;2023-04-07T16:14:49;100399.81;;;13.84;38.80
35553;BME280;21656;46.054;13.614;2023-04-07T16:17:14;100401.22;;;13.88;38.57
35553;BME280;21656;46.054;13.614;2023-04-07T16:19:40;100398.38;;;13.90;39.32
35553;BME280;21656;46.054;13.614;2023-04-07T16:22:05;100395.94;;;13.87;39.47
35553;BME280;21656;46.054;13.614;2023-04-07T16:24:30;100397.69;;;13.88;38.87
35553;BME280;21656;46.054;13.614;2023-04-07T16:26:56;100393.09;;;13.88;39.58
35553;BME280;21656;46.054;13.614;2023-04-07T16:29:22;100389.88;;;13.75;38.88
35553;BME280;21656;46.054;13.614;2023-04-07T16:31:47;100396.13;;;13.66;39.05
35553;BME280;21656;46.054;13.614;2023-04-07T16:34:13;100392.72;;;13.64;38.77
35553;BME280;21656;46.054;13.614;2023-04-07T16:36:38;100395.56;;;13.62;39.27
35553;BME280;21656;46.054;13.614;2023-04-07T16:39:04;100397.69;;;13.59;39.19
35553;BME280;21656;46.054;13.614;2023-04-07T16:41:29;100393.84;;;13.61;38.71
35553;BME280;21656;46.054;13.614;2023-04-07T16:43:54;100398.84;;;13.56;39.27
35553;BME280;21656;46.054;13.614;2023-04-07T16:46:19;100401.13;;;13.51;41.72
35553;BME280;21656;46.054;13.614;2023-04-07T16:48:45;100398.72;;;13.48;43.44
35553;BME280;21656;46.054;13.614;2023-04-07T16:51:18;100397.16;;;13.46;41.44
35553;BME280;21656;46.054;13.614;2023-04-07T16:53:44;100404.25;;;13.47;42.35
35553;BME280;21656;46.054;13.614;2023-04-07T16:56:19;100406.28;;;13.44;43.84
35553;BME280;21656;46.054;13.614;2023-04-07T16:58:46;100405.69;;;13.31;45.02
35553;BME280;21656;46.054;13.614;2023-04-07T17:01:11;100402.50;;;13.26;44.92
35553;BME280;21656;46.054;13.614;2023-04-07T17:03:37;100404.66;;;13.22;46.63
35553;BME280;21656;46.054;13.614;2023-04-07T17:06:02;100408.47;;;13.10;47.27
35553;BME280;21656;46.054;13.614;2023-04-07T17:08:34;100413.88;;;13.00;48.15
35553;BME280;21656;46.054;13.614;2023-04-07T17:10:59;100412.25;;;12.88;48.72
35553;BME280;21656;46.054;13.614;2023-04-07T17:13:25;100411.63;;;12.65;50.00
35553;BME280;21656;46.054;13.614;2023-04-07T17:15:52;100413.50;;;12.65;50.00
35553;BME280;21656;46.054;13.614;2023-04-07T17:18:17;100416.44;;;12.52;51.18
35553;BME280;21656;46.054;13.614;2023-04-07T17:20:42;100421.34;;;12.37;51.57
35553;BME280;21656;46.054;13.614;2023-04-07T17:23:07;100421.88;;;12.31;52.10
35553;BME280;21656;46.054;13.614;2023-04-07T17:25:36;100426.25;;;12.22;53.09
35553;BME280;21656;46.054;13.614;2023-04-07T17:28:01;100427.19;;;12.11;52.74
35553;BME280;21656;46.054;13.614;2023-04-07T17:30:26;100431.47;;;11.93;54.49
35553;BME280;21656;46.054;13.614;2023-04-07T17:32:52;100433.84;;;11.86;54.66
35553;BME280;21656;46.054;13.614;2023-04-07T17:35:17;100434.53;;;11.67;55.65
35553;BME280;21656;46.054;13.614;2023-04-07T17:37:42;100432.16;;;11.53;56.16
35553;BME280;21656;46.054;13.614;2023-04-07T17:40:08;100432.06;;;11.43;56.59
35553;BME280;21656;46.054;13.614;2023-04-07T17:42:33;100439.78;;;11.37;57.04
35553;BME280;21656;46.054;13.614;2023-04-07T17:44:59;100444.03;;;11.18;58.01
35553;BME280;21656;46.054;13.614;2023-04-07T17:47:25;100436.47;;;11.12;59.54
35553;BME280;21656;46.054;13.614;2023-04-07T17:49:51;100442.59;;;11.03;60.37
35553;BME280;21656;46.054;13.614;2023-04-07T17:52:16;100453.63;;;11.00;61.95
35553;BME280;21656;46.054;13.614;2023-04-07T17:54:41;100454.75;;;10.86;62.98
35553;BME280;21656;46.054;13.614;2023-04-07T17:57:07;100456.34;;;10.77;64.75
35553;BME280;21656;46.054;13.614;2023-04-07T17:59:32;100463.97;;;10.61;65.74
35553;BME280;21656;46.054;13.614;2023-04-07T18:01:58;100463.09;;;10.49;66.30
35553;BME280;21656;46.054;13.614;2023-04-07T18:04:23;100472.41;;;10.45;65.72
35553;BME280;21656;46.054;13.614;2023-04-07T18:06:49;100474.47;;;10.41;66.79
35553;BME280;21656;46.054;13.614;2023-04-07T18:09:15;100483.03;;;10.35;67.14
35553;BME280;21656;46.054;13.614;2023-04-07T18:11:40;100485.22;;;10.30;67.36
35553;BME280;21656;46.054;13.614;2023-04-07T18:14:06;100485.09;;;10.20;67.55
35553;BME280;21656;46.054;13.614;2023-04-07T18:16:31;100489.22;;;10.25;67.61
35553;BME280;21656;46.054;13.614;2023-04-07T18:18:58;100499.63;;;10.18;67.96
35553;BME280;21656;46.054;13.614;2023-04-07T18:21:24;100501.06;;;10.11;69.82
35553;BME280;21656;46.054;13.614;2023-04-07T18:23:49;100508.75;;;10.04;70.17
35553;BME280;21656;46.054;13.614;2023-04-07T18:26:15;100504.31;;;9.92;72.00
35553;BME280;21656;46.054;13.614;2023-04-07T18:28:40;100503.94;;;9.85;72.65
35553;BME280;21656;46.054;13.614;2023-04-07T18:31:06;100502.69;;;9.78;72.55
35553;BME280;21656;46.054;13.614;2023-04-07T18:33:31;100502.94;;;9.75;72.75
35553;BME280;21656;46.054;13.614;2023-04-07T18:36:03;100506.63;;;9.61;74.01
35553;BME280;21656;46.054;13.614;2023-04-07T18:38:30;100506.97;;;9.57;74.57
35553;BME280;21656;46.054;13.614;2023-04-07T18:40:55;100514.69;;;9.61;73.02
35553;BME280;21656;46.054;13.614;2023-04-07T18:43:21;100515.03;;;9.57;75.45
35553;BME280;21656;46.054;13.614;2023-04-07T18:45:46;100519.97;;;9.39;79.68
35553;BME280;21656;46.054;13.614;2023-04-07T18:48:12;100522.13;;;9.33;80.57
35553;BME280;21656;46.054;13.614;2023-04-07T18:50:37;100524.44;;;9.27;83.55
35553;BME280;21656;46.054;13.614;2023-04-07T18:53:02;100521.88;;;9.13;83.91
35553;BME280;21656;46.054;13.614;2023-04-07T18:55:28;100526.28;;;9.14;83.05
35553;BME280;21656;46.054;13.614;2023-04-07T18:57:53;100527.06;;;9.03;84.19
35553;BME280;21656;46.054;13.614;2023-04-07T19:00:19;100525.38;;;9.02;84.36
35553;BME280;21656;46.054;13.614;2023-04-07T19:02:44;100533.25;;;9.16;84.55
35553;BME280;21656;46.054;13.614;2023-04-07T19:05:10;100531.34;;;9.05;86.28
35553;BME280;21656;46.054;13.614;2023-04-07T19:07:36;100542.19;;;9.04;87.14
35553;BME280;21656;46.054;13.614;2023-04-07T19:10:01;100540.72;;;9.00;88.50
35553;BME280;21656;46.054;13.614;2023-04-07T19:12:26;100543.19;;;9.03;91.64
35553;BME280;21656;46.054;13.614;2023-04-07T19:14:51;100543.94;;;9.05;90.26
35553;BME280;21656;46.054;13.614;2023-04-07T19:17:17;100549.09;;;8.95;90.62
35553;BME280;21656;46.054;13.614;2023-04-07T19:19:42;100540.09;;;8.83;91.42
35553;BME280;21656;46.054;13.614;2023-04-07T19:22:08;100545.38;;;8.72;90.68
35553;BME280;21656;46.054;13.614;2023-04-07T19:24:33;100543.78;;;8.70;90.80
35553;BME280;21656;46.054;13.614;2023-04-07T19:26:58;100544.94;;;8.65;92.59
35553;BME280;21656;46.054;13.614;2023-04-07T19:29:23;100543.88;;;8.68;93.18
35553;BME280;21656;46.054;13.614;2023-04-07T19:31:49;100556.88;;;8.61;92.94